Terminal Aerodrome Forecast
Issued by NWS Chicago, IL

Home | Current Version | Previous Version | Text Only | Print | Product List | Glossary Off
Versions: 1 2 3 4 5 6 7 8 9 10 11 12 13 14 15 16 17 18 19 20 21 22 23 24 25 26 27 28 29 30

450
FTUS43 KLOT 161907 AAA
TAFRFD
TAF AMD
KRFD 161907Z 1619/1718 13012KT P6SM SCT040 BKN250
     FM162030 15009KT P6SM VCTS SCT020 BKN040CB
      TEMPO 1621/1624 2SM TSRA BKN020CB
     FM170400 17010KT P6SM VCSH SCT020 BKN050
     FM170800 20008KT 6SM BR SCT007 BKN015
     FM171400 23012G19KT P6SM SCT012 BKN020=

USA.gov is the U.S. government's official web portal to all federal, state and local government web resources and services.